Airfield :
LOGIN :

Register | Disclaimer

   EN    FR    IT 

 










Legend :    VFR   Marginal VFR   IFR   Intensive IFR   Very Intensive IFR
Visi :
Ceiling :
>= 8 km
>= 3000ft
5 to 8 km
1000 to 3000 ft
1500m to 5 km
500 to 1000 ft
800 to 1500m
200 to 500 ft
< 800m
< 200 ft
Symbols :   Thunderstorms  Fog  Heavy snow  Heavy precipitations  Wind > 20 kt
SIGMETs :     Misc.  Thunderstorms  Icing  Turbulence  Mountain Waves  Volcanic Ashes






- Airport Elevation : 13 ft
- IATA code : CEQ


LFMD - Cannes Mandelieu

CURRENT METAR :
  • 062300Z AUTO 35003KT 310V030 CAVOK 23/18 Q1015

EXPIRED METARs :
  • 062230Z AUTO VRB02KT CAVOK 24/18 Q1016
  • 062200Z AUTO VRB02KT CAVOK 24/19 Q1015
  • 062130Z AUTO 36003KT CAVOK 24/19 Q1016
  • 062100Z AUTO 36002KT CAVOK 25/19 Q1016 NOSIG
  • 062030Z AUTO VRB02KT CAVOK 26/19 Q1015 NOSIG

TAF TAF LFMD
Valid from the 06 at 15:00 until the 07 at 15:00 UTC


061400Z 0615/0715 16008KT CAVOK
ATIS : +33 4 92 19 94 92



MET'MAP, your aeronautical weather chart ! - Copyright ORBIFLY December 2007 - Disclaimer

ORBIFLY MET'MAP TEAM :

Programming & Development : Alexandra Zaïnal
Original concept : Baudouin d'Aumeries
Technical & hardware support : Manuel Goepfert
Assistance : Marc-Olivier Méhu




SOURCES & CREDITS :

   NOAA